Dunning, NE (68833)

2:58 AM CST on March 03, 2015 (GMT -0600)
Thedford | Change Station
CLOSE
Current Station
Airport
Location: Thedford,
Elevation: 2927 ft
Nearby Weather Stations

Elev 2927 ft 41.96 °N, 100.57 °W | Updated 23 minutes ago

Overcast
Overcast
28 °F
Feels Like 24 °F
N
4
Wind Variable Wind from South

Today
High -- | Low -- °F
--% Chance of Precip.
Yesterday
High -- | Low -- °F
Precip. -- in
7:12 AM 6:32 PM
Waxing Gibbous, 95% visible
Pressure 29.62 in
Visibility 2.5 miles
Clouds Scattered Clouds 300 ft
Overcast 1200 ft
Windchill 24 °F
Dew Point 28 °F
Humidity 97%
Rainfall 0.00 in
Snow Depth Not available.
UV 0 out of 12
Pollen 2.40 out of 12
Air Quality Not available.
Flu Activity Not available.
METAR KTIF 030835Z AUTO 17003KT 2 1/2SM BR SCT003 OVC012 M02/M02 A2962 RMK AO2 T10211025

More Conditions Fewer Conditions

Pressure 29.62 in
Visibility 2.5 miles
Clouds Scattered Clouds 300 ft
Overcast 1200 ft
Windchill 24 °F
Dew Point 28 °F
Humidity 97%
Rainfall 0.00 in
Snow Depth Not available.
UV 0 out of 12
Pollen 2.40 out of 12
Air Quality Not available.
Flu Activity Not available.
METAR KTIF 030835Z AUTO 17003KT 2 1/2SM BR SCT003 OVC012 M02/M02 A2962 RMK AO2 T10211025

More Conditions Fewer Conditions

10-Day Weather Forecast

Almanac

Astronomy

Mar. 03, 2015 Rise Set
Actual Time
Civil Twilight
Nautical Twilight
Astronomical Twilight
Moon
Length of Visible Light
Length of Day
Tomorrow will be .
, % of the Moon is Illuminated

Today's Extremes

State Highs State Lows

Community

WunderPhotos

Upload Photos

1,802,075 photos uploaded!

WunderBlogs® & News

Nearby

Air Quality

  Air Quality AQ Index Pollutant
Not available.

Snow Depth

Station Depth Elevation

Earthquake Activity

City Distance Mag. Time & Date
Minimum magnitude displayed is 2.5.

Coastal Water Temperatures

Place Temperature

Nearby Weather Stations